Time;durP1;ratioP1;P1;durP2;ratioP2;P2;SDS_P1;SDS_P2;PMS_P1;PMS_P2;Temp;Humidity;BMP_temperature;BMP_pressure;BME280_temperature;BME280_humidity;BME280_pressure;Samples;Min_cycle;Max_cycle;Signal;HPM_P1;HPM_P2
2023/01/09 00:00:51;;;;;;;;;;;18.10;42.90;;;;;;8332990;28;20012;-42
2023/01/09 00:04:52;;;;;;;;;;;18.10;42.90;;;;;;8332666;28;20015;-42
2023/01/09 00:08:52;;;;;;;;;;;18.10;42.90;;;;;;8332739;28;19921;-43
2023/01/09 00:12:53;;;;;;;;;;;18.10;42.90;;;;;;8332496;28;19917;-42
2023/01/09 00:16:54;;;;;;;;;;;18.10;42.90;;;;;;8331763;28;19983;-43
2023/01/09 00:20:57;;;;;;;;;;;18.10;42.90;;;;;;8332091;28;19920;-43
2023/01/09 00:24:58;;;;;;;;;;;18.10;42.90;;;;;;8332406;28;19964;-43
2023/01/09 00:28:58;;;;;;;;;;;18.10;42.90;;;;;;8331772;28;19948;-43
2023/01/09 00:32:59;;;;;;;;;;;18.10;42.90;;;;;;8331733;28;19924;-44
2023/01/09 00:36:59;;;;;;;;;;;18.10;42.90;;;;;;8331676;28;19926;-43
2023/01/09 00:41:00;;;;;;;;;;;18.10;42.90;;;;;;8331139;28;19921;-43
2023/01/09 00:45:06;;;;;;;;;;;18.10;42.90;;;;;;8331641;28;19920;-42
2023/01/09 00:49:07;;;;;;;;;;;18.10;42.90;;;;;;8331278;28;19924;-46
2023/01/09 00:53:11;;;;;;;;;;;18.10;42.90;;;;;;8330642;28;19948;-42
2023/01/09 00:57:12;;;;;;;;;;;18.00;42.90;;;;;;8330885;28;19928;-42
2023/01/09 01:01:12;;;;;;;;;;;18.10;42.90;;;;;;8331175;28;19917;-43
2023/01/09 01:09:32;;;;;;;;;;;18.00;42.90;;;;;;8331037;28;19971;-43
2023/01/09 01:13:32;;;;;;;;;;;18.00;42.90;;;;;;8330213;28;19917;-42
2023/01/09 01:17:34;;;;;;;;;;;18.00;42.90;;;;;;8330607;28;19925;-43
2023/01/09 01:21:34;;;;;;;;;;;18.00;42.90;;;;;;8330678;28;20371;-43
2023/01/09 01:25:36;;;;;;;;;;;18.00;42.90;;;;;;8329800;28;20003;-42
2023/01/09 01:29:36;;;;;;;;;;;18.00;42.90;;;;;;8330258;28;19941;-43
2023/01/09 01:33:37;;;;;;;;;;;18.00;42.90;;;;;;8330727;28;19917;-43
2023/01/09 01:37:37;;;;;;;;;;;18.10;42.90;;;;;;8329524;28;20378;-43
2023/01/09 01:41:38;;;;;;;;;;;18.00;42.90;;;;;;8330417;28;19913;-43
2023/01/09 01:45:39;;;;;;;;;;;18.00;42.90;;;;;;8330361;28;19996;-43
2023/01/09 01:49:40;;;;;;;;;;;18.00;42.90;;;;;;8329432;28;19924;-43
2023/01/09 01:53:46;;;;;;;;;;;18.00;43.00;;;;;;8330115;28;20028;-43
2023/01/09 01:57:47;;;;;;;;;;;18.00;42.90;;;;;;8331952;28;19921;-43
2023/01/09 02:01:49;;;;;;;;;;;18.00;42.90;;;;;;8335969;28;19917;-43
2023/01/09 02:05:50;;;;;;;;;;;18.00;42.90;;;;;;8336896;28;19920;-43
2023/01/09 02:09:50;;;;;;;;;;;18.00;42.90;;;;;;8321385;28;19921;-43
2023/01/09 02:13:51;;;;;;;;;;;18.00;42.90;;;;;;8324660;28;20428;-43
2023/01/09 02:18:18;;;;;;;;;;;18.00;42.90;;;;;;8335618;28;20409;-44
2023/01/09 02:22:34;;;;;;;;;;;18.00;42.90;;;;;;8335449;28;20508;-44
2023/01/09 02:26:47;;;;;;;;;;;18.00;42.90;;;;;;8335231;28;19940;-43
2023/01/09 02:30:53;;;;;;;;;;;18.00;42.90;;;;;;8335957;28;19939;-44
2023/01/09 02:35:16;;;;;;;;;;;18.00;42.90;;;;;;8335020;28;19921;-43
2023/01/09 02:39:24;;;;;;;;;;;18.00;43.00;;;;;;8274236;28;19929;-44
2023/01/09 02:43:25;;;;;;;;;;;17.90;42.90;;;;;;8319414;28;19913;-43
2023/01/09 02:47:28;;;;;;;;;;;17.90;42.90;;;;;;8334413;28;19917;-43
2023/01/09 02:51:35;;;;;;;;;;;17.90;42.80;;;;;;8334884;28;19921;-44
2023/01/09 02:55:44;;;;;;;;;;;17.90;42.80;;;;;;8334654;28;19979;-43
2023/01/09 02:59:45;;;;;;;;;;;18.00;42.90;;;;;;8334579;28;20281;-43
2023/01/09 03:03:48;;;;;;;;;;;17.90;42.80;;;;;;8334454;28;19925;-43
2023/01/09 03:07:49;;;;;;;;;;;17.90;42.80;;;;;;8333683;28;19949;-44
2023/01/09 03:11:52;;;;;;;;;;;17.90;42.80;;;;;;8334605;28;20298;-43
2023/01/09 03:15:54;;;;;;;;;;;17.90;42.90;;;;;;8334606;28;20020;-43
2023/01/09 03:19:55;;;;;;;;;;;17.90;42.80;;;;;;8333864;28;20352;-43
2023/01/09 03:23:57;;;;;;;;;;;17.90;42.90;;;;;;8333810;28;19924;-43
2023/01/09 03:27:59;;;;;;;;;;;17.90;42.90;;;;;;8333755;28;19913;-43
2023/01/09 03:31:59;;;;;;;;;;;17.90;42.80;;;;;;8333197;28;19931;-43
2023/01/09 03:36:00;;;;;;;;;;;17.90;42.90;;;;;;8333622;28;19925;-43
2023/01/09 03:40:00;;;;;;;;;;;17.90;42.90;;;;;;8333594;28;20352;-43
2023/01/09 03:44:00;;;;;;;;;;;17.90;42.80;;;;;;8332801;28;20294;-43
2023/01/09 03:48:01;;;;;;;;;;;17.90;42.90;;;;;;8333620;28;19914;-43
2023/01/09 03:52:01;;;;;;;;;;;17.90;42.80;;;;;;8333429;28;20000;-43
2023/01/09 03:56:02;;;;;;;;;;;17.90;42.80;;;;;;8332371;28;19925;-43
2023/01/09 04:00:03;;;;;;;;;;;17.90;42.80;;;;;;8333164;28;19928;-44
2023/01/09 04:04:03;;;;;;;;;;;17.90;42.80;;;;;;8332882;28;19918;-43
2023/01/09 04:08:04;;;;;;;;;;;17.90;42.80;;;;;;8331952;28;19943;-44
2023/01/09 04:12:05;;;;;;;;;;;17.90;42.90;;;;;;8332567;28;19921;-43
2023/01/09 04:16:05;;;;;;;;;;;17.90;42.90;;;;;;8332805;28;20004;-43
2023/01/09 04:20:06;;;;;;;;;;;17.90;42.80;;;;;;8330914;28;19924;-43
2023/01/09 04:24:06;;;;;;;;;;;17.90;42.80;;;;;;8331796;28;19971;-43
2023/01/09 04:28:07;;;;;;;;;;;17.90;42.80;;;;;;8332003;28;19920;-43
2023/01/09 04:32:07;;;;;;;;;;;17.90;42.80;;;;;;8331788;28;20028;-43
2023/01/09 04:36:08;;;;;;;;;;;17.90;42.80;;;;;;8332070;28;20298;-44
2023/01/09 04:40:09;;;;;;;;;;;17.90;42.70;;;;;;8331878;28;20444;-44
2023/01/09 04:44:09;;;;;;;;;;;17.90;42.60;;;;;;8330991;28;19961;-43
2023/01/09 04:48:10;;;;;;;;;;;18.00;42.70;;;;;;8331337;28;19919;-43
2023/01/09 04:52:10;;;;;;;;;;;18.00;42.60;;;;;;8331487;28;19921;-44
2023/01/09 04:56:11;;;;;;;;;;;18.00;42.60;;;;;;8330485;28;19960;-43
2023/01/09 05:00:11;;;;;;;;;;;17.90;42.60;;;;;;8330955;28;20436;-44
2023/01/09 05:04:13;;;;;;;;;;;18.00;42.60;;;;;;8328878;28;20018;-43
2023/01/09 05:08:13;;;;;;;;;;;18.00;43.10;;;;;;8330456;28;20011;-43
2023/01/09 05:12:13;;;;;;;;;;;18.00;42.50;;;;;;8331148;28;19920;-43
2023/01/09 05:16:14;;;;;;;;;;;18.00;42.50;;;;;;8330602;28;20351;-43
2023/01/09 05:20:14;;;;;;;;;;;18.00;42.50;;;;;;8330170;28;19917;-44
2023/01/09 05:24:15;;;;;;;;;;;18.00;42.40;;;;;;8330440;28;19917;-43
2023/01/09 05:28:15;;;;;;;;;;;18.00;42.40;;;;;;8330566;28;19924;-43
2023/01/09 05:32:16;;;;;;;;;;;18.00;42.40;;;;;;8330355;28;19920;-43
2023/01/09 05:36:16;;;;;;;;;;;18.00;42.40;;;;;;8330761;28;19925;-43
2023/01/09 05:40:17;;;;;;;;;;;18.00;42.40;;;;;;8329915;28;19917;-43
2023/01/09 05:44:17;;;;;;;;;;;17.90;42.40;;;;;;8329508;28;19917;-43
2023/01/09 05:48:17;;;;;;;;;;;17.90;42.40;;;;;;8330174;28;19963;-43
2023/01/09 05:52:18;;;;;;;;;;;17.90;42.40;;;;;;8330441;28;19974;-43
2023/01/09 05:56:18;;;;;;;;;;;17.90;42.40;;;;;;8329371;28;19925;-43
2023/01/09 06:00:19;;;;;;;;;;;17.90;42.40;;;;;;8330190;28;19917;-43
2023/01/09 06:04:19;;;;;;;;;;;17.90;42.40;;;;;;8329807;28;20055;-43
2023/01/09 06:08:20;;;;;;;;;;;17.90;42.40;;;;;;8329404;28;19917;-43
2023/01/09 06:12:20;;;;;;;;;;;17.90;42.40;;;;;;8329820;28;19920;-43
2023/01/09 06:16:21;;;;;;;;;;;17.90;42.30;;;;;;8329697;28;19932;-43
2023/01/09 06:20:21;;;;;;;;;;;17.80;42.40;;;;;;8329045;28;19923;-43
2023/01/09 06:24:21;;;;;;;;;;;17.80;42.40;;;;;;8329657;28;20323;-45
2023/01/09 06:28:22;;;;;;;;;;;17.80;42.30;;;;;;8329519;28;20064;-43
2023/01/09 06:32:22;;;;;;;;;;;17.80;42.40;;;;;;8329006;28;19960;-44
2023/01/09 06:36:23;;;;;;;;;;;17.80;42.40;;;;;;8329273;28;19936;-44
2023/01/09 06:40:23;;;;;;;;;;;17.80;42.40;;;;;;8329372;28;20454;-44
2023/01/09 06:44:23;;;;;;;;;;;17.80;42.50;;;;;;8331396;28;19921;-45
2023/01/09 06:48:24;;;;;;;;;;;17.80;42.40;;;;;;8335012;28;19957;-44
2023/01/09 06:52:24;;;;;;;;;;;17.80;42.40;;;;;;8335514;28;19921;-44
2023/01/09 06:56:25;;;;;;;;;;;17.80;42.50;;;;;;8334271;28;20317;-44
2023/01/09 07:00:26;;;;;;;;;;;17.80;42.40;;;;;;8334908;28;19917;-43
2023/01/09 07:04:26;;;;;;;;;;;17.80;42.40;;;;;;8334534;28;19917;-43
2023/01/09 07:08:27;;;;;;;;;;;17.80;42.40;;;;;;8333465;28;19913;-44
2023/01/09 07:12:27;;;;;;;;;;;17.80;42.40;;;;;;8334259;28;20381;-44
2023/01/09 07:16:27;;;;;;;;;;;17.80;42.40;;;;;;8333753;28;19925;-44
2023/01/09 07:20:28;;;;;;;;;;;17.80;42.40;;;;;;8333447;28;19917;-44
2023/01/09 07:24:28;;;;;;;;;;;17.80;42.40;;;;;;8333695;28;19917;-44
2023/01/09 07:28:29;;;;;;;;;;;17.80;42.40;;;;;;8333857;28;20374;-45
2023/01/09 07:32:29;;;;;;;;;;;17.80;42.50;;;;;;8333470;28;19914;-44
2023/01/09 07:36:30;;;;;;;;;;;17.80;42.40;;;;;;8333506;28;19975;-44
2023/01/09 07:40:30;;;;;;;;;;;17.80;42.30;;;;;;8333336;28;19918;-44
2023/01/09 07:44:31;;;;;;;;;;;17.80;42.30;;;;;;8332425;28;19921;-45
2023/01/09 07:48:31;;;;;;;;;;;17.80;42.40;;;;;;8333024;28;19918;-44
2023/01/09 07:52:32;;;;;;;;;;;17.80;42.30;;;;;;8333187;28;19928;-43
2023/01/09 07:56:32;;;;;;;;;;;17.80;42.30;;;;;;8330985;28;19929;-44
2023/01/09 08:00:33;;;;;;;;;;;17.80;42.30;;;;;;8332828;28;19928;-43
2023/01/09 08:04:33;;;;;;;;;;;17.80;42.30;;;;;;8326174;28;19918;-43
2023/01/09 08:08:34;;;;;;;;;;;17.80;42.20;;;;;;8331760;28;19914;-44
2023/01/09 08:12:34;;;;;;;;;;;17.80;42.30;;;;;;8332282;28;20000;-45
2023/01/09 08:16:35;;;;;;;;;;;17.80;42.20;;;;;;8331588;28;20440;-44
2023/01/09 08:20:35;;;;;;;;;;;17.80;42.30;;;;;;8332101;28;19992;-44
2023/01/09 08:24:35;;;;;;;;;;;17.80;42.20;;;;;;8331901;28;19987;-44
2023/01/09 08:28:36;;;;;;;;;;;17.80;42.20;;;;;;8331530;28;20349;-44
2023/01/09 08:32:37;;;;;;;;;;;17.80;42.20;;;;;;8331440;28;20381;-43
2023/01/09 08:36:37;;;;;;;;;;;17.80;42.20;;;;;;8331517;28;19925;-44
2023/01/09 08:40:38;;;;;;;;;;;17.80;42.20;;;;;;8328791;28;20020;-42
2023/01/09 08:48:57;;;;;;;;;;;17.80;42.20;;;;;;8323354;28;19971;-45
2023/01/09 08:52:58;;;;;;;;;;;17.90;42.20;;;;;;8329897;28;19921;-44
2023/01/09 08:56:58;;;;;;;;;;;17.90;42.20;;;;;;8327581;28;20027;-43
2023/01/09 09:00:59;;;;;;;;;;;17.90;42.20;;;;;;8326997;28;19917;-44
2023/01/09 09:04:59;;;;;;;;;;;17.90;42.20;;;;;;8328279;28;19917;-44
2023/01/09 09:09:02;;;;;;;;;;;17.90;42.20;;;;;;8329099;28;20394;-43
2023/01/09 09:13:03;;;;;;;;;;;17.80;42.20;;;;;;8323600;28;19921;-43
2023/01/09 09:17:03;;;;;;;;;;;17.80;42.20;;;;;;8333060;28;19929;-43
2023/01/09 09:21:04;;;;;;;;;;;17.80;42.20;;;;;;8329366;28;19971;-43
2023/01/09 09:25:05;;;;;;;;;;;17.80;42.20;;;;;;8330507;28;19928;-44
2023/01/09 09:29:05;;;;;;;;;;;17.80;42.20;;;;;;8309697;28;19921;-43
2023/01/09 09:33:06;;;;;;;;;;;17.80;42.10;;;;;;8321174;28;20342;-43
2023/01/09 09:37:06;;;;;;;;;;;17.80;42.10;;;;;;8315777;28;20382;-43
2023/01/09 09:45:58;;;;;;;;;;;17.80;42.10;;;;;;8323704;28;19975;-43
2023/01/09 09:50:18;;;;;;;;;;;17.80;42.10;;;;;;8329325;28;20004;-43
2023/01/09 09:54:22;;;;;;;;;;;17.80;42.10;;;;;;8332363;28;19965;-43
2023/01/09 09:58:27;;;;;;;;;;;17.80;42.10;;;;;;8327725;28;19999;-42
2023/01/09 10:02:49;;;;;;;;;;;17.80;42.10;;;;;;8324641;28;20015;-43
2023/01/09 10:06:51;;;;;;;;;;;17.80;42.10;;;;;;8316885;28;19917;-43
2023/01/09 10:10:53;;;;;;;;;;;17.80;42.10;;;;;;8327990;28;19919;-44
2023/01/09 10:14:57;;;;;;;;;;;17.80;42.10;;;;;;8315943;28;20315;-44
2023/01/09 10:19:05;;;;;;;;;;;17.80;42.10;;;;;;8328172;28;19929;-43
2023/01/09 10:23:15;;;;;;;;;;;17.90;42.20;;;;;;8332764;28;19917;-44
2023/01/09 10:27:21;;;;;;;;;;;17.80;42.10;;;;;;8328826;28;19957;-43
2023/01/09 10:31:36;;;;;;;;;;;17.80;42.10;;;;;;8335465;28;20031;-43
2023/01/09 10:35:50;;;;;;;;;;;17.90;42.10;;;;;;8335087;28;20374;-44
2023/01/09 10:39:51;;;;;;;;;;;17.80;42.00;;;;;;8335584;28;19978;-44
2023/01/09 10:43:58;;;;;;;;;;;17.90;42.00;;;;;;8335193;28;19917;-44
2023/01/09 10:48:04;;;;;;;;;;;17.90;42.00;;;;;;8334989;28;19917;-44
2023/01/09 10:52:09;;;;;;;;;;;17.80;42.00;;;;;;8335254;28;20392;-44
2023/01/09 10:56:14;;;;;;;;;;;17.90;42.00;;;;;;8334326;28;19921;-45
2023/01/09 11:00:16;;;;;;;;;;;17.90;42.00;;;;;;8335247;28;19917;-44
2023/01/09 11:04:34;;;;;;;;;;;17.80;41.90;;;;;;8334841;28;20012;-45
2023/01/09 11:08:40;;;;;;;;;;;17.80;41.90;;;;;;8333233;28;20000;-44
2023/01/09 11:12:41;;;;;;;;;;;17.90;41.90;;;;;;8334929;28;19924;-44
2023/01/09 11:16:52;;;;;;;;;;;17.90;41.90;;;;;;8333673;28;19925;-44
2023/01/09 11:20:53;;;;;;;;;;;17.90;41.90;;;;;;8334312;28;20020;-44
2023/01/09 11:25:00;;;;;;;;;;;17.90;41.90;;;;;;8334120;28;20366;-43
2023/01/09 11:29:05;;;;;;;;;;;17.90;41.90;;;;;;8333539;28;19914;-44
2023/01/09 11:33:18;;;;;;;;;;;17.80;41.90;;;;;;8333734;28;20370;-44
2023/01/09 11:37:24;;;;;;;;;;;17.90;42.00;;;;;;8333457;28;19925;-44
2023/01/09 11:41:29;;;;;;;;;;;17.80;41.90;;;;;;8333015;28;20314;-45
2023/01/09 11:45:31;;;;;;;;;;;17.90;42.00;;;;;;8333558;28;20011;-44
2023/01/09 11:49:31;;;;;;;;;;;17.80;42.00;;;;;;8333875;28;19988;-45
2023/01/09 11:53:45;;;;;;;;;;;17.90;42.00;;;;;;8333158;28;19928;-44
2023/01/09 11:57:45;;;;;;;;;;;17.80;42.00;;;;;;8332889;28;19932;-44
2023/01/09 12:01:46;;;;;;;;;;;17.90;42.00;;;;;;8332483;28;20261;-45
2023/01/09 12:05:54;;;;;;;;;;;17.80;41.90;;;;;;8332690;28;20362;-44
2023/01/09 12:10:01;;;;;;;;;;;17.90;42.00;;;;;;8333067;28;19921;-44
2023/01/09 12:14:04;;;;;;;;;;;17.90;42.00;;;;;;8331925;28;19988;-43
2023/01/09 12:18:22;;;;;;;;;;;17.90;42.00;;;;;;8332480;28;19929;-43
2023/01/09 12:22:30;;;;;;;;;;;17.90;42.00;;;;;;8332535;28;19935;-43
2023/01/09 12:26:32;;;;;;;;;;;17.80;42.00;;;;;;8331518;28;19924;-43
2023/01/09 12:30:38;;;;;;;;;;;17.80;42.00;;;;;;8332337;28;19917;-44
2023/01/09 12:34:47;;;;;;;;;;;17.80;42.00;;;;;;8331547;28;20282;-44
2023/01/09 12:38:50;;;;;;;;;;;17.90;42.00;;;;;;8331490;28;19956;-44
2023/01/09 12:42:54;;;;;;;;;;;17.90;42.10;;;;;;8330908;28;19921;-44
2023/01/09 12:47:15;;;;;;;;;;;17.80;42.00;;;;;;8330464;28;21454;-44
2023/01/09 12:51:38;;;;;;;;;;;17.90;42.00;;;;;;8331411;28;20337;-44
2023/01/09 12:55:41;;;;;;;;;;;17.90;42.00;;;;;;8330934;28;19959;-45
2023/01/09 12:59:46;;;;;;;;;;;17.90;42.00;;;;;;8331566;28;19968;-44
2023/01/09 13:04:00;;;;;;;;;;;17.90;41.90;;;;;;8331098;28;19924;-44
2023/01/09 13:08:05;;;;;;;;;;;17.90;42.00;;;;;;8330365;28;19929;-45
2023/01/09 13:12:20;;;;;;;;;;;17.90;41.90;;;;;;8331152;28;19917;-43
2023/01/09 13:16:25;;;;;;;;;;;17.90;41.90;;;;;;8330692;28;19922;-44
2023/01/09 13:20:32;;;;;;;;;;;17.90;41.90;;;;;;8330343;28;20002;-44
2023/01/09 13:24:37;;;;;;;;;;;17.90;41.80;;;;;;8330342;28;19924;-43
2023/01/09 13:28:49;;;;;;;;;;;17.90;41.80;;;;;;8329620;28;19918;-44
2023/01/09 13:33:10;;;;;;;;;;;17.90;41.80;;;;;;8330196;28;19990;-44
2023/01/09 13:37:19;;;;;;;;;;;17.90;41.80;;;;;;8330132;28;19925;-44
2023/01/09 13:45:39;;;;;;;;;;;17.90;41.80;;;;;;8330624;28;20397;-44
2023/01/09 13:49:39;;;;;;;;;;;17.90;41.80;;;;;;8329555;28;19917;-45
2023/01/09 13:53:40;;;;;;;;;;;17.90;41.80;;;;;;8331728;28;19927;-44
2023/01/09 13:58:04;;;;;;;;;;;17.90;41.80;;;;;;8336767;28;19925;-44
2023/01/09 14:02:28;;;;;;;;;;;17.90;41.80;;;;;;8334957;28;19929;-44
2023/01/09 14:06:29;;;;;;;;;;;17.90;41.80;;;;;;8336313;28;19917;-44
2023/01/09 14:10:35;;;;;;;;;;;17.90;41.80;;;;;;8336548;28;19917;-44
2023/01/09 14:14:40;;;;;;;;;;;17.90;41.80;;;;;;8335671;28;19924;-44
2023/01/09 14:18:47;;;;;;;;;;;17.90;41.90;;;;;;8336032;28;19971;-43
2023/01/09 14:22:54;;;;;;;;;;;17.90;41.90;;;;;;8335535;28;19952;-44
2023/01/09 14:26:56;;;;;;;;;;;17.90;41.90;;;;;;8335722;28;19921;-44
2023/01/09 14:30:56;;;;;;;;;;;17.90;41.80;;;;;;8335837;28;19913;-45
2023/01/09 14:35:00;;;;;;;;;;;17.90;41.80;;;;;;8335156;28;19917;-44
2023/01/09 14:39:02;;;;;;;;;;;17.90;41.90;;;;;;8335392;28;19925;-44
2023/01/09 14:43:08;;;;;;;;;;;17.90;41.90;;;;;;8335630;28;19917;-44
2023/01/09 14:47:26;;;;;;;;;;;17.90;41.90;;;;;;8334766;28;19971;-45
2023/01/09 14:51:30;;;;;;;;;;;17.90;41.90;;;;;;8335195;28;19928;-44
2023/01/09 14:55:34;;;;;;;;;;;17.90;42.00;;;;;;8335251;28;20322;-44
2023/01/09 14:59:35;;;;;;;;;;;17.90;41.90;;;;;;8334157;28;19925;-43
2023/01/09 15:03:50;;;;;;;;;;;17.90;42.00;;;;;;8334214;28;19925;-43
2023/01/09 15:07:56;;;;;;;;;;;17.90;42.00;;;;;;8333886;28;20263;-44
2023/01/09 15:12:01;;;;;;;;;;;17.90;42.00;;;;;;8334215;28;20355;-45
2023/01/09 15:16:03;;;;;;;;;;;17.90;41.90;;;;;;8334287;28;20382;-44
2023/01/09 15:20:05;;;;;;;;;;;17.90;41.90;;;;;;8333430;28;19921;-44
2023/01/09 15:24:18;;;;;;;;;;;17.90;42.00;;;;;;8334144;28;19924;-44
2023/01/09 15:28:29;;;;;;;;;;;17.80;41.90;;;;;;8334116;28;19967;-45
2023/01/09 15:32:30;;;;;;;;;;;17.80;41.90;;;;;;8333248;28;20448;-45
2023/01/09 15:36:30;;;;;;;;;;;17.90;42.00;;;;;;8333985;28;19928;-44
2023/01/09 15:40:32;;;;;;;;;;;17.80;42.00;;;;;;8333502;28;19917;-44
2023/01/09 15:44:36;;;;;;;;;;;17.80;42.00;;;;;;8332876;28;19955;-44
2023/01/09 15:48:36;;;;;;;;;;;17.80;42.00;;;;;;8333339;28;20310;-44
2023/01/09 15:52:37;;;;;;;;;;;17.80;42.00;;;;;;8333006;28;19924;-43
2023/01/09 15:56:38;;;;;;;;;;;17.80;42.00;;;;;;8333141;28;19921;-45
2023/01/09 16:00:40;;;;;;;;;;;17.80;42.00;;;;;;8332803;28;19921;-45
2023/01/09 16:04:41;;;;;;;;;;;17.80;42.00;;;;;;8332194;28;19917;-44
2023/01/09 16:08:47;;;;;;;;;;;17.80;42.00;;;;;;8332909;28;19924;-44
2023/01/09 16:12:49;;;;;;;;;;;17.80;42.00;;;;;;8332802;28;19963;-44
2023/01/09 16:16:50;;;;;;;;;;;17.80;42.00;;;;;;8330948;28;20466;-42
2023/01/09 16:20:59;;;;;;;;;;;17.80;42.00;;;;;;8332807;28;19917;-43
2023/01/09 16:25:19;;;;;;;;;;;17.80;42.00;;;;;;8332801;28;19917;-43
2023/01/09 16:29:32;;;;;;;;;;;17.80;42.00;;;;;;8331615;28;19940;-43
2023/01/09 16:33:33;;;;;;;;;;;17.80;42.00;;;;;;8335076;28;19921;-43
2023/01/09 16:37:34;;;;;;;;;;;17.80;42.00;;;;;;8331565;28;20021;-43
2023/01/09 16:45:54;;;;;;;;;;;17.80;42.00;;;;;;8335786;28;20423;-43
2023/01/09 16:49:54;;;;;;;;;;;17.70;42.00;;;;;;8330673;28;19968;-43
2023/01/09 16:53:55;;;;;;;;;;;17.80;42.00;;;;;;8331270;28;20525;-43
2023/01/09 16:57:55;;;;;;;;;;;17.80;42.00;;;;;;8330895;28;19921;-43
2023/01/09 17:01:56;;;;;;;;;;;17.80;42.00;;;;;;8330607;28;19918;-44
2023/01/09 17:05:58;;;;;;;;;;;17.80;42.00;;;;;;8329662;28;19921;-43
2023/01/09 17:09:58;;;;;;;;;;;17.70;42.00;;;;;;8331045;28;19917;-42
2023/01/09 17:13:59;;;;;;;;;;;17.80;42.00;;;;;;8321281;28;19967;-44
2023/01/09 17:18:00;;;;;;;;;;;17.70;42.00;;;;;;8315206;28;19926;-44
2023/01/09 17:22:01;;;;;;;;;;;17.70;41.90;;;;;;8329700;28;19913;-43
2023/01/09 17:30:20;;;;;;;;;;;17.80;42.50;;;;;;8336386;28;19928;-43
2023/01/09 17:34:21;;;;;;;;;;;17.80;42.60;;;;;;8317433;28;20043;-43
2023/01/09 17:38:21;;;;;;;;;;;17.80;42.50;;;;;;8309227;28;19929;-43
2023/01/09 17:42:22;;;;;;;;;;;17.90;42.50;;;;;;8311460;28;20374;-42
2023/01/09 17:46:27;;;;;;;;;;;17.90;42.60;;;;;;8329930;28;19928;-43
2023/01/09 17:50:32;;;;;;;;;;;17.90;42.60;;;;;;8323421;28;19936;-43
2023/01/09 17:54:32;;;;;;;;;;;17.90;42.60;;;;;;8329353;28;19921;-43
2023/01/09 17:58:33;;;;;;;;;;;17.90;42.50;;;;;;8320957;28;19927;-44
2023/01/09 18:02:33;;;;;;;;;;;18.00;42.70;;;;;;8308220;28;19928;-45
2023/01/09 18:06:35;;;;;;;;;;;18.00;42.80;;;;;;8325410;28;19957;-46
2023/01/09 18:10:36;;;;;;;;;;;18.00;42.80;;;;;;8310887;28;19917;-46
2023/01/09 18:14:36;;;;;;;;;;;18.10;42.70;;;;;;8319445;28;19917;-45
2023/01/09 18:18:37;;;;;;;;;;;18.10;42.90;;;;;;8312178;28;19921;-46
2023/01/09 18:22:38;;;;;;;;;;;18.20;42.70;;;;;;8327332;28;19917;-43
2023/01/09 18:26:38;;;;;;;;;;;18.20;42.70;;;;;;8329623;28;19921;-44
2023/01/09 18:30:38;;;;;;;;;;;18.20;42.70;;;;;;8328763;28;19921;-43
2023/01/09 18:34:39;;;;;;;;;;;18.20;42.60;;;;;;8328234;28;19913;-42
2023/01/09 18:38:40;;;;;;;;;;;18.20;42.70;;;;;;8327218;28;20382;-43
2023/01/09 18:42:41;;;;;;;;;;;18.30;43.00;;;;;;8327238;28;19940;-44
2023/01/09 18:46:42;;;;;;;;;;;18.30;42.90;;;;;;8306269;28;19957;-42
2023/01/09 18:50:44;;;;;;;;;;;18.30;42.90;;;;;;8325776;28;19928;-43
2023/01/09 18:54:44;;;;;;;;;;;18.30;42.90;;;;;;8334442;28;19971;-42
2023/01/09 18:58:46;;;;;;;;;;;18.20;42.90;;;;;;8333570;28;19925;-43
2023/01/09 19:02:46;;;;;;;;;;;18.20;42.90;;;;;;8334399;28;20339;-43
2023/01/09 19:06:46;;;;;;;;;;;18.20;42.90;;;;;;8333719;28;19925;-43
2023/01/09 19:10:53;;;;;;;;;;;18.20;42.90;;;;;;8332686;28;19991;-43
2023/01/09 19:14:54;;;;;;;;;;;18.30;43.00;;;;;;8333538;28;19924;-43
2023/01/09 19:18:56;;;;;;;;;;;18.20;42.90;;;;;;8320591;28;20034;-43
2023/01/09 19:22:56;;;;;;;;;;;18.30;42.90;;;;;;8321128;28;19918;-44
2023/01/09 19:26:57;;;;;;;;;;;18.30;43.00;;;;;;8314478;28;20290;-43
2023/01/09 19:30:58;;;;;;;;;;;18.30;42.80;;;;;;8323564;28;20024;-44
2023/01/09 19:34:58;;;;;;;;;;;18.40;42.80;;;;;;8331062;28;20112;-43
2023/01/09 19:38:59;;;;;;;;;;;18.40;42.70;;;;;;8329739;28;19925;-42
2023/01/09 19:43:00;;;;;;;;;;;18.40;42.70;;;;;;8332911;28;19963;-42
2023/01/09 19:47:00;;;;;;;;;;;18.40;42.60;;;;;;8326033;28;19917;-44
2023/01/09 19:51:02;;;;;;;;;;;18.50;42.70;;;;;;8328027;28;20360;-43
2023/01/09 19:55:02;;;;;;;;;;;18.50;42.70;;;;;;8323541;28;20271;-44
2023/01/09 19:59:04;;;;;;;;;;;18.50;42.70;;;;;;8331843;28;19925;-44
2023/01/09 20:03:04;;;;;;;;;;;18.50;42.70;;;;;;8332049;28;19924;-44
2023/01/09 20:07:05;;;;;;;;;;;18.50;42.60;;;;;;8332166;28;19921;-44
2023/01/09 20:11:05;;;;;;;;;;;18.60;42.60;;;;;;8331727;28;19917;-45
2023/01/09 20:15:11;;;;;;;;;;;18.50;42.60;;;;;;8330277;28;19917;-44
2023/01/09 20:19:12;;;;;;;;;;;18.60;42.60;;;;;;8331499;28;20062;-44
2023/01/09 20:23:16;;;;;;;;;;;18.60;42.70;;;;;;8330145;28;19917;-43
2023/01/09 20:27:17;;;;;;;;;;;18.60;42.70;;;;;;8330241;28;19917;-45
2023/01/09 20:31:18;;;;;;;;;;;18.60;42.40;;;;;;8327220;28;19917;-45
2023/01/09 20:35:21;;;;;;;;;;;18.50;42.90;;;;;;8328787;28;19948;-46
2023/01/09 20:39:21;;;;;;;;;;;18.50;42.80;;;;;;8330427;28;19925;-45
2023/01/09 20:43:22;;;;;;;;;;;18.50;42.70;;;;;;8331340;28;20012;-46
2023/01/09 20:47:22;;;;;;;;;;;18.50;42.70;;;;;;8330512;28;19923;-45
2023/01/09 20:51:23;;;;;;;;;;;18.40;42.70;;;;;;8330997;28;20000;-47
2023/01/09 20:55:23;;;;;;;;;;;18.40;42.60;;;;;;8331123;28;19924;-45
2023/01/09 20:59:24;;;;;;;;;;;18.40;42.70;;;;;;8330463;28;20349;-45
2023/01/09 21:03:24;;;;;;;;;;;18.40;42.70;;;;;;8330692;28;20366;-46
2023/01/09 21:07:27;;;;;;;;;;;18.30;42.60;;;;;;8329902;28;21355;-45
2023/01/09 21:11:27;;;;;;;;;;;18.30;42.50;;;;;;8330048;28;19917;-45
2023/01/09 21:15:27;;;;;;;;;;;18.30;42.60;;;;;;8330727;28;19913;-46
2023/01/09 21:19:28;;;;;;;;;;;18.30;43.10;;;;;;8330343;28;19925;-46
2023/01/09 21:23:28;;;;;;;;;;;18.30;42.60;;;;;;8330159;28;19967;-45
2023/01/09 21:27:32;;;;;;;;;;;18.30;42.60;;;;;;8330169;28;20058;-45
2023/01/09 21:31:33;;;;;;;;;;;18.30;42.50;;;;;;8330493;28;19959;-45
2023/01/09 21:35:34;;;;;;;;;;;18.20;42.60;;;;;;8329782;28;20319;-46
2023/01/09 21:39:35;;;;;;;;;;;18.20;42.50;;;;;;8330248;28;19990;-46
2023/01/09 21:47:54;;;;;;;;;;;18.20;42.50;;;;;;8335099;28;19932;-45
2023/01/09 21:51:55;;;;;;;;;;;18.20;42.50;;;;;;8330232;28;19988;-45
2023/01/09 21:55:55;;;;;;;;;;;18.10;42.40;;;;;;8329570;28;20378;-46
2023/01/09 21:59:56;;;;;;;;;;;18.10;42.40;;;;;;8329805;28;19931;-46
2023/01/09 22:03:56;;;;;;;;;;;18.10;42.40;;;;;;8330111;28;19913;-45
2023/01/09 22:07:57;;;;;;;;;;;18.10;42.40;;;;;;8329218;28;19967;-46
2023/01/09 22:11:57;;;;;;;;;;;18.10;42.40;;;;;;8329951;28;19960;-46
2023/01/09 22:16:02;;;;;;;;;;;18.10;42.40;;;;;;8333810;28;20278;-45
2023/01/09 22:20:02;;;;;;;;;;;18.10;42.50;;;;;;8335748;28;20019;-45
2023/01/09 22:24:05;;;;;;;;;;;18.00;42.40;;;;;;8336176;28;19913;-45
2023/01/09 22:28:05;;;;;;;;;;;18.00;42.40;;;;;;8335690;28;19924;-45
2023/01/09 22:32:05;;;;;;;;;;;18.00;42.40;;;;;;8335206;28;19940;-45
2023/01/09 22:36:07;;;;;;;;;;;18.00;42.40;;;;;;8335595;28;19925;-46
2023/01/09 22:40:08;;;;;;;;;;;18.00;42.40;;;;;;8335284;28;19925;-45
2023/01/09 22:44:10;;;;;;;;;;;18.00;42.40;;;;;;8335083;28;19945;-44
2023/01/09 22:48:10;;;;;;;;;;;18.00;42.40;;;;;;8335175;28;19917;-45
2023/01/09 22:52:11;;;;;;;;;;;18.00;43.00;;;;;;8335237;28;20344;-45
2023/01/09 22:56:13;;;;;;;;;;;18.00;42.40;;;;;;8334514;28;20345;-45
2023/01/09 23:00:13;;;;;;;;;;;18.00;42.40;;;;;;8335073;28;19986;-46
2023/01/09 23:04:15;;;;;;;;;;;17.90;42.40;;;;;;8332968;28;20390;-44
2023/01/09 23:08:16;;;;;;;;;;;17.90;42.40;;;;;;8334109;28;19917;-43
2023/01/09 23:12:16;;;;;;;;;;;17.90;42.50;;;;;;8334581;28;20325;-43
2023/01/09 23:16:16;;;;;;;;;;;17.90;42.40;;;;;;8334223;28;20007;-44
2023/01/09 23:20:17;;;;;;;;;;;17.90;42.40;;;;;;8333781;28;19933;-45
2023/01/09 23:24:18;;;;;;;;;;;17.90;42.50;;;;;;8334467;28;19921;-45
2023/01/09 23:28:19;;;;;;;;;;;17.90;42.40;;;;;;8333879;28;19924;-44
2023/01/09 23:32:19;;;;;;;;;;;17.90;42.40;;;;;;8333427;28;19917;-44
2023/01/09 23:36:21;;;;;;;;;;;17.90;42.40;;;;;;8333603;28;19917;-44
2023/01/09 23:40:21;;;;;;;;;;;17.90;42.40;;;;;;8333883;28;19921;-44
2023/01/09 23:44:22;;;;;;;;;;;17.90;42.40;;;;;;8333326;28;20008;-45
2023/01/09 23:48:22;;;;;;;;;;;17.90;42.40;;;;;;8333235;28;20401;-43
2023/01/09 23:52:22;;;;;;;;;;;17.90;42.40;;;;;;8333638;28;19968;-44
2023/01/09 23:56:23;;;;;;;;;;;17.90;42.40;;;;;;8332715;28;19925;-44
